Cebu, Philippines

11:30 AM PHT on September 02, 2014 (GMT +0800)
Best Western Plus Lex Cebu | Change Station
CLOSE
Current Station
Personal Weather Station
Location: Cebu, Cebu
Elevation: 157 ft
Nearby Weather Stations

Elev 157 ft 10.32 °N, 123.89 °E | Updated 7 seconds ago

Partly Cloudy
Partly Cloudy
87.0 °F
Feels Like 98 °F
N
4.0
Wind Variable Wind from South
Gusts 13.0 mph

Today
High -- | Low -- °F
--% Chance of Precip.
Yesterday
High -- | Low -- °F
Precip. -- in
5:34 AM 5:53 PM
Waxing Crescent, 47% visible
Pressure 29.83 in
Visibility 6.2 miles
Clouds Few 2000 ft
Heat Index 98 °F
Dew Point 76 °F
Humidity 71%
Rainfall 0.00 in
Snow Depth Not available.
UV 16 out of 12
Pollen Not available.
Air Quality Not available.
Flu Activity Not available.
METAR RPVM 020300Z 21009KT 9999 FEW020 30/24 Q1010 RMK A2983

More Conditions Fewer Conditions

Pressure 29.83 in
Visibility 6.2 miles
Clouds Few 2000 ft
Heat Index 98 °F
Dew Point 76 °F
Humidity 71%
Rainfall 0.00 in
Snow Depth Not available.
UV 16 out of 12
Pollen Not available.
Air Quality Not available.
Flu Activity Not available.
METAR RPVM 020300Z 21009KT 9999 FEW020 30/24 Q1010 RMK A2983

More Conditions Fewer Conditions

10-Day Weather Forecast

Almanac

Astronomy

Sep. 02, 2014 Rise Set
Actual Time 5:34 AM PHT 5:53 PM PHT
Civil Twilight 5:13 AM PHT 6:14 PM PHT
Nautical Twilight 4:48 AM PHT 6:39 PM PHT
Astronomical Twilight 4:23 AM PHT 7:03 PM PHT
Moon 11:31 AM PHT 11:29 PM PHT
Length of Visible Light 13h 00m
Length of Day
12h 18m
Tomorrow will be 0m 33s shorter.
Waxing Crescent, 47% of the Moon is Illuminated
Sep 1
Waxing Crescent
Sep 2
First Quarter
Sep 8
Full
Sep 15
Last Quarter
Sep 24
New

Yesterday's Extremes

Country Highs Country Lows

Community

WunderPhotos

Upload Photos

1,749,555 photos uploaded!

WunderBlogs® & News

Nearby

Snow Depth

Not available.

Earthquake Activity

City Distance Mag. Time & Date
No recent earthquake activity has been reported nearby.
Minimum magnitude displayed is 2.5.

Coastal Water Temperatures

Place Temperature
No Stations Reporting

Nearby Weather Stations